Montrose Regional Airport Montrose US
ICAO: KMTJ
IATA: MTJ
Category: Medium
Scheduled Services: No

Elevation: 5759 ft
TransAlt. 18000 ft.

Airport Communications:
ASOS:135.225
DENVER CNTR:125.35
DENVER RDO:122.65
CTAF/UNICOM:122.8

KMTJ Zoom In..

If Map Doesn't Load, Click Here

Runways:

(A) RW 13 length 7510 ft width 100 ft
---- / hdg 127

(B) RW 17 length 10000 ft width 150 ft
ILS 111.30 / hdg 168

(C) RW 31 length 7510 ft width 100 ft
---- / hdg 307

(D) RW 35 length 10000 ft width 150 ft
---- / hdg 348

Location; KMTJ
Day. 23 / Time. 21.53 Zulu
* Altimeter: 30.03
* Temperature: 27° c. 80.6°f.
* Wind from: 250° Speed 14 kn.
Dewpoint: -02° c.
Visibility: 10 Statute Miles.
Clouds: Few 12000 ft.

KMTJ 232153Z AUTO 25014KT 10SM FEW120 27/M02 A3003 RMK AO2 SLP094 T02721017


Wind From 250°
Speed 14 kn.

 
 
jpsmedia.com for Web Design worldairports.se 2018   terms of use